createdAt,value
2018-04-02T00:00:35.386Z,4
2018-04-02T00:01:25.734Z,4
2018-04-02T00:02:15.506Z,4
2018-04-02T00:03:05.576Z,4
2018-04-02T00:03:55.626Z,3.9
2018-04-02T00:04:45.967Z,3.9
2018-04-02T00:05:35.468Z,3.9
2018-04-02T00:06:25.811Z,3.9
2018-04-02T00:07:15.676Z,3.9
2018-04-02T00:08:06.221Z,3.9
2018-04-02T00:08:56.087Z,3.9
2018-04-02T00:09:46.050Z,3.9
2018-04-02T00:10:36.403Z,3.9
2018-04-02T00:11:26.447Z,3.9
2018-04-02T00:12:16.238Z,3.9
2018-04-02T00:13:06.300Z,3.9
2018-04-02T00:13:56.353Z,3.9
2018-04-02T00:14:46.409Z,3.8
2018-04-02T00:15:36.477Z,3.9
2018-04-02T00:16:26.945Z,3.8
2018-04-02T00:17:16.880Z,3.8
2018-04-02T00:18:06.957Z,3.8
2018-04-02T00:18:56.730Z,3.8
2018-04-02T00:19:47.081Z,3.8
2018-04-02T00:20:36.852Z,3.8
2018-04-02T00:21:27.185Z,3.8
2018-04-02T00:22:16.965Z,3.8
2018-04-02T00:23:07.307Z,3.8
2018-04-02T00:23:57.449Z,3.8
2018-04-02T00:24:47.139Z,3.8
2018-04-02T00:25:37.493Z,3.8
2018-04-02T00:26:27.570Z,3.8
2018-04-02T00:27:17.315Z,3.7
2018-04-02T00:28:07.385Z,3.7
2018-04-02T00:28:57.732Z,3.7
2018-04-02T00:29:47.507Z,3.7
2018-04-02T00:30:37.557Z,3.7
2018-04-02T00:31:27.714Z,3.7
2018-04-02T00:32:17.776Z,3.7
2018-04-02T00:33:07.755Z,3.7
2018-04-02T00:33:58.109Z,3.7
2018-04-02T00:34:47.587Z,3.6
2018-04-02T00:35:38.208Z,3.6
2018-04-02T00:36:27.985Z,3.6
2018-04-02T00:37:18.332Z,3.6
2018-04-02T00:38:08.399Z,3.6
2018-04-02T00:38:58.460Z,3.6
2018-04-02T00:39:48.504Z,3.6
2018-04-02T00:40:38.291Z,3.6
2018-04-02T00:41:28.640Z,3.6
2018-04-02T00:42:18.416Z,3.6
2018-04-02T00:43:08.469Z,3.6
2018-04-02T00:43:58.534Z,3.6
2018-04-02T00:44:48.889Z,3.6
2018-04-02T00:45:38.736Z,3.6
2018-04-02T00:46:29.019Z,3.6
2018-04-02T00:47:19.075Z,3.6
2018-04-02T00:48:09.141Z,3.6
2018-04-02T00:48:59.185Z,3.5
2018-04-02T00:49:49.231Z,3.5
2018-04-02T00:50:39.300Z,3.5
2018-04-02T00:51:28.795Z,3.5
2018-04-02T00:52:19.418Z,3.4
2018-04-02T00:53:09.489Z,3.4
2018-04-02T00:53:59.560Z,3.4
2018-04-02T00:54:49.625Z,3.4
2018-04-02T00:55:39.097Z,3.4
2018-04-02T00:56:29.730Z,3.4
2018-04-02T00:57:19.302Z,3.4
2018-04-02T00:58:09.865Z,3.4
2018-04-02T00:58:59.637Z,3.4
2018-04-02T00:59:49.693Z,3.4
2018-04-02T01:00:39.748Z,3.4
2018-04-02T01:01:30.085Z,3.4
2018-04-02T01:02:19.877Z,3.3
2018-04-02T01:03:10.219Z,3.3
2018-04-02T01:03:59.791Z,3.3
2018-04-02T01:04:50.340Z,3.3
2018-04-02T01:05:39.918Z,3.3
2018-04-02T01:06:30.178Z,3.3
2018-04-02T01:07:20.507Z,3.3
2018-04-02T01:08:10.290Z,3.3
2018-04-02T01:09:00.641Z,3.3
2018-04-02T01:09:50.431Z,3.3
2018-04-02T01:10:40.267Z,3.3
2018-04-02T01:11:30.845Z,3.3
2018-04-02T01:12:20.892Z,3.3
2018-04-02T01:13:10.663Z,3.2
2018-04-02T01:14:00.722Z,3.2
2018-04-02T01:14:50.857Z,3.2
2018-04-02T01:15:41.135Z,3.2
2018-04-02T01:16:30.907Z,3.1
2018-04-02T01:17:20.967Z,3.2
2018-04-02T01:18:11.304Z,3.1
2018-04-02T01:19:00.787Z,3.1
2018-04-02T01:19:51.432Z,3.1
2018-04-02T01:20:41.204Z,3.1
2018-04-02T01:21:31.271Z,3.1
2018-04-02T01:22:21.038Z,3.1
2018-04-02T01:23:11.105Z,3.1
2018-04-02T01:24:01.245Z,3.1
2018-04-02T01:24:51.809Z,3
2018-04-02T01:25:41.842Z,3
2018-04-02T01:26:31.424Z,3
2018-04-02T01:27:21.978Z,3
2018-04-02T01:28:11.754Z,2.9
2018-04-02T01:29:01.813Z,2.9
2018-04-02T01:29:51.863Z,2.9
2018-04-02T01:30:42.011Z,2.9
2018-04-02T01:31:32.266Z,2.9
2018-04-02T01:32:22.061Z,2.9
2018-04-02T01:33:12.104Z,2.9
2018-04-02T01:34:02.270Z,2.9
2018-04-02T01:34:52.518Z,2.9
2018-04-02T01:35:42.188Z,2.9
2018-04-02T01:36:32.636Z,2.9
2018-04-02T01:37:22.714Z,2.8
2018-04-02T01:38:12.196Z,2.8
2018-04-02T01:39:02.841Z,2.8
2018-04-02T01:39:52.692Z,2.8
2018-04-02T01:40:42.996Z,2.8
2018-04-02T01:41:33.013Z,2.8
2018-04-02T01:42:23.085Z,2.8
2018-04-02T01:43:13.137Z,2.8
2018-04-02T01:44:03.202Z,2.8
2018-04-02T01:44:52.764Z,2.8
2018-04-02T01:45:43.319Z,2.8
2018-04-02T01:46:33.375Z,2.7
2018-04-02T01:47:23.148Z,2.7
2018-04-02T01:48:13.476Z,2.7
2018-04-02T01:49:03.560Z,2.7
2018-04-02T01:49:53.608Z,2.7
2018-04-02T01:50:43.678Z,2.7
2018-04-02T01:51:33.750Z,2.7
2018-04-02T01:52:23.790Z,2.6
2018-04-02T01:53:13.293Z,2.6
2018-04-02T01:54:03.912Z,2.6
2018-04-02T01:54:53.980Z,2.6
2018-04-02T01:55:43.754Z,2.6
2018-04-02T01:56:33.813Z,2.6
2018-04-02T01:57:23.595Z,2.6
2018-04-02T01:58:13.939Z,2.6
2018-04-02T01:59:03.795Z,2.5
2018-04-02T01:59:54.064Z,2.5
2018-04-02T02:00:44.130Z,2.5
2018-04-02T02:01:34.227Z,2.5
2018-04-02T02:02:24.545Z,2.5
2018-04-02T02:03:14.577Z,2.4
2018-04-02T02:04:04.362Z,2.4
2018-04-02T02:04:54.134Z,2.4
2018-04-02T02:05:44.201Z,2.4
2018-04-02T02:06:34.349Z,2.4
2018-04-02T02:07:24.607Z,2.4
2018-04-02T02:08:14.958Z,2.4
2018-04-02T02:09:04.779Z,2.4
2018-04-02T02:09:54.789Z,2.4
2018-04-02T02:10:45.139Z,2.4
2018-04-02T02:11:34.919Z,2.3
2018-04-02T02:12:24.972Z,2.3
2018-04-02T02:13:15.124Z,2.3
2018-04-02T02:14:05.100Z,2.3
2018-04-02T02:14:55.158Z,2.3
2018-04-02T02:15:45.011Z,2.3
2018-04-02T02:16:34.986Z,2.3
2018-04-02T02:17:25.336Z,2.3
2018-04-02T02:18:15.412Z,2.3
2018-04-02T02:19:05.175Z,2.3
2018-04-02T02:19:55.316Z,2.3
2018-04-02T02:20:45.854Z,2.3
2018-04-02T02:21:35.724Z,2.3
2018-04-02T02:22:25.583Z,2.3
2018-04-02T02:23:15.784Z,2.3
2018-04-02T02:24:05.920Z,2.3
2018-04-02T02:24:55.885Z,2.3
2018-04-02T02:25:46.233Z,2.3
2018-04-02T02:26:36.100Z,2.2
2018-04-02T02:27:26.403Z,2.2
2018-04-02T02:28:16.410Z,2.2
2018-04-02T02:29:05.983Z,2.2
2018-04-02T02:29:56.540Z,2.2
2018-04-02T02:30:46.321Z,2.2
2018-04-02T02:31:36.390Z,2.2
2018-04-02T02:32:26.718Z,2.1
2018-04-02T02:33:16.775Z,2.1
2018-04-02T02:34:06.567Z,2.1
2018-04-02T02:34:56.334Z,2.1
2018-04-02T02:35:46.681Z,2.1
2018-04-02T02:36:36.451Z,2.1
2018-04-02T02:37:26.873Z,2.1
2018-04-02T02:38:17.162Z,2.1
2018-04-02T02:39:06.933Z,2.1
2018-04-02T02:39:57.336Z,2.1
2018-04-02T02:40:47.040Z,2.1
2018-04-02T02:41:37.392Z,2.1
2018-04-02T02:42:27.437Z,2
2018-04-02T02:43:16.937Z,2.1
2018-04-02T02:44:07.284Z,2
2018-04-02T02:44:57.437Z,2
2018-04-02T02:45:47.691Z,2
2018-04-02T02:46:37.471Z,2
2018-04-02T02:47:27.820Z,2
2018-04-02T02:48:17.861Z,1.9
2018-04-02T02:49:07.654Z,1.9
2018-04-02T02:49:58.002Z,1.9
2018-04-02T02:50:48.057Z,1.9
2018-04-02T02:51:38.107Z,1.9
2018-04-02T02:52:28.175Z,1.9
2018-04-02T02:53:18.249Z,1.9
2018-04-02T02:54:08.303Z,1.9
2018-04-02T02:54:58.065Z,1.9
2018-04-02T02:55:48.412Z,1.9
2018-04-02T02:56:38.476Z,1.9
2018-04-02T02:57:28.533Z,1.8
2018-04-02T02:58:18.601Z,1.9
2018-04-02T02:59:08.666Z,1.8
2018-04-02T02:59:58.725Z,1.8
2018-04-02T03:00:48.775Z,1.8
2018-04-02T03:01:38.846Z,1.8
2018-04-02T03:02:28.919Z,1.8
2018-04-02T03:03:18.675Z,1.8
2018-04-02T03:04:08.732Z,1.8
2018-04-02T03:04:58.823Z,1.8
2018-04-02T03:05:48.860Z,1.8
2018-04-02T03:06:38.920Z,1.8
2018-04-02T03:07:29.259Z,1.8
2018-04-02T03:08:19.050Z,1.8
2018-04-02T03:09:09.096Z,1.8
2018-04-02T03:09:59.163Z,1.7
2018-04-02T03:10:49.022Z,1.7
2018-04-02T03:11:39.290Z,1.7
2018-04-02T03:12:29.063Z,1.7
2018-04-02T03:13:19.405Z,1.8
2018-04-02T03:14:09.180Z,1.7
2018-04-02T03:14:59.820Z,1.7
2018-04-02T03:15:49.601Z,1.7
2018-04-02T03:16:39.454Z,1.7
2018-04-02T03:17:29.709Z,1.7
2018-04-02T03:18:19.568Z,1.7
2018-04-02T03:19:09.545Z,1.7
2018-04-02T03:19:59.779Z,1.7
2018-04-02T03:20:49.950Z,1.7
2018-04-02T03:21:40.006Z,1.7
2018-04-02T03:22:30.375Z,1.6
2018-04-02T03:23:19.942Z,1.7
2018-04-02T03:24:10.199Z,1.7
2018-04-02T03:25:00.047Z,1.7
2018-04-02T03:25:50.400Z,1.7
2018-04-02T03:26:40.654Z,1.7
2018-04-02T03:27:30.729Z,1.7
2018-04-02T03:28:20.509Z,1.7
2018-04-02T03:29:10.839Z,1.7
2018-04-02T03:30:00.633Z,1.7
2018-04-02T03:30:50.973Z,1.7
2018-04-02T03:31:40.753Z,1.7
2018-04-02T03:32:31.101Z,1.7
2018-04-02T03:33:20.868Z,1.7
2018-04-02T03:34:10.636Z,1.7
2018-04-02T03:35:01.284Z,1.7
2018-04-02T03:35:51.332Z,1.7
2018-04-02T03:36:41.410Z,1.7
2018-04-02T03:37:31.447Z,1.7
2018-04-02T03:38:20.939Z,1.7
2018-04-02T03:39:11.571Z,1.7
2018-04-02T03:40:01.641Z,1.7
2018-04-02T03:40:51.712Z,1.7
2018-04-02T03:41:41.756Z,1.7
2018-04-02T03:42:31.528Z,1.7
2018-04-02T03:43:21.889Z,1.8
2018-04-02T03:44:11.663Z,1.7
2018-04-02T03:45:01.994Z,1.7
2018-04-02T03:45:51.776Z,1.7
2018-04-02T03:46:41.845Z,1.8
2018-04-02T03:47:31.893Z,1.7
2018-04-02T03:48:22.241Z,1.7
2018-04-02T03:49:12.298Z,1.8
2018-04-02T03:50:02.385Z,1.8
2018-04-02T03:50:52.137Z,1.8
2018-04-02T03:51:42.493Z,1.8
2018-04-02T03:52:32.252Z,1.8
2018-04-02T03:53:22.333Z,1.8
2018-04-02T03:54:12.375Z,1.8
2018-04-02T03:55:02.455Z,1.8
2018-04-02T03:55:52.777Z,1.8
2018-04-02T03:56:42.573Z,1.8
2018-04-02T03:57:32.927Z,1.8
2018-04-02T03:58:23.030Z,1.8
2018-04-02T03:59:12.757Z,1.8
2018-04-02T04:00:03.090Z,1.8
2018-04-02T04:00:53.145Z,1.8
2018-04-02T04:01:43.213Z,1.9
2018-04-02T04:02:33.000Z,1.9
2018-04-02T04:03:23.338Z,1.9
2018-04-02T04:04:13.381Z,1.9
2018-04-02T04:05:03.182Z,1.9
2018-04-02T04:05:53.513Z,1.9
2018-04-02T04:06:43.567Z,1.9
2018-04-02T04:07:33.345Z,1.9
2018-04-02T04:08:23.499Z,1.9
2018-04-02T04:09:13.464Z,1.9
2018-04-02T04:10:03.526Z,1.9
2018-04-02T04:10:53.871Z,1.9
2018-04-02T04:11:43.650Z,2
2018-04-02T04:12:33.994Z,2
2018-04-02T04:13:23.578Z,2
2018-04-02T04:14:13.844Z,2.1
2018-04-02T04:15:03.911Z,2.1
2018-04-02T04:15:53.956Z,2.1
2018-04-02T04:16:44.293Z,2.1
2018-04-02T04:17:34.079Z,2.1
2018-04-02T04:18:24.422Z,2.1
2018-04-02T04:19:14.197Z,2.1
2018-04-02T04:20:04.259Z,2.1
2018-04-02T04:20:54.123Z,2.1
2018-04-02T04:21:44.378Z,2.1
2018-04-02T04:22:34.441Z,2.2
2018-04-02T04:23:24.511Z,2.2
2018-04-02T04:24:14.284Z,2.2
2018-04-02T04:25:04.631Z,2.3
2018-04-02T04:25:54.397Z,2.2
2018-04-02T04:26:44.746Z,2.3
2018-04-02T04:27:35.078Z,2.3
2018-04-02T04:28:24.862Z,2.3
2018-04-02T04:29:14.642Z,2.3
2018-04-02T04:30:04.988Z,2.3
2018-04-02T04:30:55.043Z,2.3
2018-04-02T04:31:45.407Z,2.4
2018-04-02T04:32:35.465Z,2.4
2018-04-02T04:33:25.239Z,2.4
2018-04-02T04:34:15.577Z,2.4
2018-04-02T04:35:05.055Z,2.4
2018-04-02T04:35:55.415Z,2.5
2018-04-02T04:36:45.520Z,2.5
2018-04-02T04:37:35.529Z,2.5
2018-04-02T04:38:25.889Z,2.6
2018-04-02T04:39:15.444Z,2.6
2018-04-02T04:40:05.515Z,2.6
2018-04-02T04:40:55.765Z,2.6
2018-04-02T04:41:45.827Z,2.6
2018-04-02T04:42:36.186Z,2.6
2018-04-02T04:43:25.957Z,2.7
2018-04-02T04:44:16.297Z,2.7
2018-04-02T04:45:05.787Z,2.7
2018-04-02T04:45:56.225Z,2.7
2018-04-02T04:46:46.285Z,2.8
2018-04-02T04:47:36.347Z,2.8
2018-04-02T04:48:26.604Z,2.8
2018-04-02T04:49:16.384Z,2.8
2018-04-02T04:50:06.429Z,2.8
2018-04-02T04:50:56.494Z,2.9
2018-04-02T04:51:46.324Z,2.9
2018-04-02T04:52:36.894Z,2.9
2018-04-02T04:53:26.974Z,2.9
2018-04-02T04:54:17.024Z,2.9
2018-04-02T04:55:06.796Z,3
2018-04-02T04:55:57.142Z,3
2018-04-02T04:56:47.223Z,3
2018-04-02T04:57:37.071Z,3
2018-04-02T04:58:27.036Z,3.1
2018-04-02T04:59:16.901Z,3.1
2018-04-02T05:00:07.437Z,3.1
2018-04-02T05:00:57.243Z,3.1
2018-04-02T05:01:46.990Z,3.1
2018-04-02T05:02:37.441Z,3.1
2018-04-02T05:03:27.403Z,3.2
2018-04-02T05:04:17.175Z,3.2
2018-04-02T05:05:07.517Z,3.2
2018-04-02T05:05:57.565Z,3.2
2018-04-02T05:06:47.633Z,3.3
2018-04-02T05:07:37.700Z,3.3
2018-04-02T05:08:28.067Z,3.3
2018-04-02T05:09:18.093Z,3.3
2018-04-02T05:10:07.879Z,3.3
2018-04-02T05:10:57.950Z,3.3
2018-04-02T05:11:47.710Z,3.4
2018-04-02T05:12:38.102Z,3.4
2018-04-02T05:13:27.828Z,3.4
2018-04-02T05:14:17.981Z,3.4
2018-04-02T05:15:07.952Z,3.4
2018-04-02T05:15:58.584Z,3.4
2018-04-02T05:16:48.453Z,3.4
2018-04-02T05:17:38.252Z,3.5
2018-04-02T05:18:28.488Z,3.5
2018-04-02T05:19:18.828Z,3.6
2018-04-02T05:20:08.895Z,3.6
2018-04-02T05:20:58.659Z,3.6
2018-04-02T05:21:48.732Z,3.6
2018-04-02T05:22:39.067Z,3.6
2018-04-02T05:23:29.144Z,3.6
2018-04-02T05:24:18.904Z,3.7
2018-04-02T05:25:08.962Z,3.7
2018-04-02T05:25:59.024Z,3.8
2018-04-02T05:26:49.384Z,3.8
2018-04-02T05:27:39.411Z,3.8
2018-04-02T05:28:29.496Z,3.8
2018-04-02T05:29:19.264Z,3.8
2018-04-02T05:30:09.607Z,3.8
2018-04-02T05:30:59.786Z,3.8
2018-04-02T05:31:49.723Z,3.9
2018-04-02T05:32:39.789Z,3.9
2018-04-02T05:33:29.573Z,3.9
2018-04-02T05:34:19.902Z,3.9
2018-04-02T05:35:09.692Z,3.9
2018-04-02T05:36:00.069Z,3.9
2018-04-02T05:36:50.093Z,4
2018-04-02T05:37:39.869Z,4
2018-04-02T05:38:30.231Z,4.1
2018-04-02T05:39:19.983Z,4.1
2018-04-02T05:40:09.761Z,4.1
2018-04-02T05:41:00.115Z,4.1
2018-04-02T05:41:49.885Z,4.1
2018-04-02T05:42:40.229Z,4.1
2018-04-02T05:43:30.285Z,4.1
2018-04-02T05:44:20.354Z,4.1
2018-04-02T05:45:10.425Z,4.2
2018-04-02T05:46:00.269Z,4.2
2018-04-02T05:46:50.831Z,4.2
2018-04-02T05:47:40.877Z,4.3
2018-04-02T05:48:30.447Z,4.3
2018-04-02T05:49:20.809Z,4.3
2018-04-02T05:50:11.068Z,4.3
2018-04-02T05:51:00.777Z,4.3
2018-04-02T05:51:51.180Z,4.3
2018-04-02T05:52:40.955Z,4.3
2018-04-02T05:53:31.027Z,4.4
2018-04-02T05:54:21.351Z,4.4
2018-04-02T05:55:11.217Z,4.4
2018-04-02T05:56:01.007Z,4.4
2018-04-02T05:56:51.257Z,4.4
2018-04-02T05:57:41.319Z,4.4
2018-04-02T05:58:31.394Z,4.4
2018-04-02T05:59:21.732Z,4.4
2018-04-02T06:00:11.514Z,4.5
2018-04-02T06:01:01.353Z,4.5
2018-04-02T06:01:51.920Z,4.6
2018-04-02T06:02:41.684Z,4.5
2018-04-02T06:03:31.536Z,4.6
2018-04-02T06:04:22.099Z,4.6
2018-04-02T06:05:11.636Z,4.6
2018-04-02T06:06:01.924Z,4.7
2018-04-02T06:06:52.260Z,4.7
2018-04-02T06:07:41.834Z,4.7
2018-04-02T06:08:31.818Z,4.8
2018-04-02T06:09:21.873Z,4.8
2018-04-02T06:10:12.223Z,4.9
2018-04-02T06:11:02.380Z,5.1
2018-04-02T06:11:52.135Z,5.1
2018-04-02T06:12:42.196Z,5.3
2018-04-02T06:13:32.451Z,5.3
2018-04-02T06:14:22.543Z,5.4
2018-04-02T06:15:12.378Z,5.4
2018-04-02T06:16:02.444Z,5.5
2018-04-02T06:16:52.725Z,5.6
2018-04-02T06:17:42.767Z,5.6
2018-04-02T06:18:32.830Z,5.7
2018-04-02T06:19:22.893Z,5.8
2018-04-02T06:20:13.026Z,5.9
2018-04-02T06:21:03.004Z,5.9
2018-04-02T06:21:53.345Z,6.1
2018-04-02T06:22:42.917Z,6.2
2018-04-02T06:23:33.184Z,6.4
2018-04-02T06:24:23.529Z,6.5
2018-04-02T06:25:13.302Z,6.7
2018-04-02T06:26:03.367Z,6.8
2018-04-02T06:26:53.424Z,7
2018-04-02T06:27:43.489Z,7.2
2018-04-02T06:28:33.543Z,7.4
2018-04-02T06:29:23.397Z,7.5
2018-04-02T06:30:13.752Z,7.7
2018-04-02T06:31:04.028Z,7.9
2018-04-02T06:31:53.875Z,8.1
2018-04-02T06:32:43.935Z,8.2
2018-04-02T06:33:33.907Z,8.3
2018-04-02T06:34:23.972Z,8.5
2018-04-02T06:35:14.065Z,8.6
2018-04-02T06:36:04.373Z,8.8
2018-04-02T06:36:54.630Z,8.9
2018-04-02T06:37:44.286Z,9.1
2018-04-02T06:38:34.570Z,9.3
2018-04-02T06:39:24.630Z,9.4
2018-04-02T06:40:14.389Z,9.6
2018-04-02T06:41:04.242Z,9.8
2018-04-02T06:41:54.313Z,9.9
2018-04-02T06:42:44.364Z,10.1
2018-04-02T06:43:34.640Z,10.3
2018-04-02T06:44:24.986Z,10.4
2018-04-02T06:45:15.109Z,10.6
2018-04-02T06:46:05.093Z,10.8
2018-04-02T06:46:55.163Z,11
2018-04-02T06:47:45.034Z,11.3
2018-04-02T06:48:35.280Z,11.4
2018-04-02T06:49:25.343Z,11.7
2018-04-02T06:50:15.398Z,11.9
2018-04-02T06:51:05.459Z,12.1
2018-04-02T06:51:55.320Z,12.3
2018-04-02T06:52:45.288Z,12.6
2018-04-02T06:53:35.349Z,12.8
2018-04-02T06:54:25.715Z,13
2018-04-02T06:55:15.768Z,13.3
2018-04-02T06:56:05.526Z,13.4
2018-04-02T06:56:55.596Z,13.6
2018-04-02T06:57:45.943Z,13.8
2018-04-02T06:58:35.713Z,13.9
2018-04-02T06:59:26.076Z,14.1
2018-04-02T07:00:15.929Z,14.3
2018-04-02T07:01:06.180Z,14.4
2018-04-02T07:01:55.956Z,14.6
2018-04-02T07:02:46.093Z,14.8
2018-04-02T07:03:35.782Z,14.9
2018-04-02T07:04:26.231Z,15.1
2018-04-02T07:05:16.467Z,15.3
2018-04-02T07:06:06.337Z,15.5
2018-04-02T07:06:56.025Z,15.8
2018-04-02T07:07:46.379Z,16.1
2018-04-02T07:08:36.436Z,16.3
2018-04-02T07:09:26.783Z,16.6
2018-04-02T07:10:16.843Z,16.9
2018-04-02T07:11:06.610Z,17.3
2018-04-02T07:11:56.668Z,17.6
2018-04-02T07:12:46.532Z,17.8
2018-04-02T07:13:36.674Z,17.9
2018-04-02T07:14:26.944Z,18
2018-04-02T07:15:17.209Z,18.1
2018-04-02T07:16:07.269Z,18.2
2018-04-02T07:16:57.032Z,18.3
2018-04-02T07:17:47.187Z,18.3
2018-04-02T07:18:37.038Z,18.3
2018-04-02T07:19:27.289Z,18.4
2018-04-02T07:20:17.552Z,18.4
2018-04-02T07:21:07.355Z,18.4
2018-04-02T07:21:57.107Z,18.4
2018-04-02T07:22:47.739Z,18.4
2018-04-02T07:23:37.322Z,18.5
2018-04-02T07:24:27.868Z,18.5
2018-04-02T07:25:17.928Z,18.5
2018-04-02T07:26:07.691Z,18.6
2018-04-02T07:26:58.032Z,18.6
2018-04-02T07:28:37.664Z,18.8
2018-04-02T07:29:28.313Z,18.9
2018-04-02T07:30:17.706Z,19
2018-04-02T07:31:08.055Z,19.1
2018-04-02T07:31:58.386Z,19.3
2018-04-02T07:32:48.163Z,19.5
2018-04-02T07:33:38.016Z,19.8
2018-04-02T07:34:28.286Z,19.9
2018-04-02T07:35:18.345Z,20.4
2018-04-02T07:36:08.405Z,21.4
2018-04-02T07:36:58.760Z,22.8
2018-04-02T07:37:48.800Z,24.1
2018-04-02T07:38:38.600Z,25.3
2018-04-02T07:39:28.945Z,26.3
2018-04-02T07:40:18.988Z,27.1
2018-04-02T07:41:08.766Z,27.6
2018-04-02T07:41:59.118Z,14
2018-04-02T07:42:48.966Z,13.3
2018-04-02T07:44:29.003Z,19.8
2018-04-02T07:45:19.155Z,22.3
2018-04-02T07:46:09.124Z,25.6
2018-04-02T07:46:58.976Z,26.5
2018-04-02T07:47:48.959Z,25.6
2018-04-02T07:48:39.600Z,24
2018-04-02T07:49:29.661Z,23.6
2018-04-02T07:50:19.412Z,24.1
2018-04-02T07:51:09.479Z,25.2
2018-04-02T07:51:59.828Z,25.9
2018-04-02T07:52:49.393Z,26.3
2018-04-02T07:53:39.953Z,26.3
2018-04-02T07:54:30.020Z,26.1
2018-04-02T07:55:20.068Z,25.9
2018-04-02T07:56:09.854Z,25.8
2018-04-02T07:57:00.177Z,25.9
2018-04-02T07:57:50.043Z,26.5
2018-04-02T07:58:40.014Z,27.2
2018-04-02T07:59:29.794Z,27.7
2018-04-02T08:00:19.934Z,27.8
2018-04-02T08:01:10.207Z,27.6
2018-04-02T08:02:00.278Z,27.4
2018-04-02T08:02:50.442Z,27.3
2018-04-02T08:03:40.682Z,27.4
2018-04-02T08:04:30.439Z,27.9
2018-04-02T08:05:20.790Z,28.6
2018-04-02T08:06:10.655Z,29.1
2018-04-02T08:07:00.632Z,29.2
2018-04-02T08:07:50.681Z,28.9
2018-04-02T08:08:41.223Z,28.8
2018-04-02T08:09:31.090Z,28.8
2018-04-02T08:10:20.845Z,28.8
2018-04-02T08:11:11.015Z,28.8
2018-04-02T08:12:00.784Z,28.8
2018-04-02T08:12:51.039Z,29.2
2018-04-02T08:13:41.154Z,29.6
2018-04-02T08:14:30.954Z,30.2
2018-04-02T08:15:20.940Z,30.6
2018-04-02T08:16:11.275Z,30.6
2018-04-02T08:17:01.061Z,30.4
2018-04-02T08:17:51.812Z,30.1
2018-04-02T08:18:41.454Z,30
2018-04-02T08:19:31.821Z,30.4
2018-04-02T08:20:21.568Z,31.2
2018-04-02T08:21:11.926Z,31.9
2018-04-02T08:22:01.718Z,32.4
2018-04-02T08:22:52.056Z,32.7
2018-04-02T08:23:41.828Z,32.6
2018-04-02T08:24:31.675Z,32.6
2018-04-02T08:25:22.263Z,32.6
2018-04-02T08:26:11.800Z,32.7
2018-04-02T08:27:02.066Z,32.9
2018-04-02T08:27:52.432Z,33.3
2018-04-02T08:28:41.904Z,33.4
2018-04-02T08:29:32.550Z,33.3
2018-04-02T08:30:22.030Z,32.9
2018-04-02T08:31:12.386Z,32.6
2018-04-02T08:32:02.727Z,32.3
2018-04-02T08:32:52.787Z,32.2
2018-04-02T08:33:42.571Z,32.1
2018-04-02T08:34:32.342Z,32.1
2018-04-02T08:35:22.391Z,32.1
2018-04-02T08:36:13.029Z,31.9
2018-04-02T08:37:03.104Z,31.8
2018-04-02T08:37:53.208Z,31.7
2018-04-02T08:38:43.092Z,31.6
2018-04-02T08:39:32.981Z,31.4
2018-04-02T08:40:23.052Z,31.4
2018-04-02T08:41:12.826Z,31.4
2018-04-02T08:42:02.883Z,31.6
2018-04-02T08:42:53.233Z,31.6
2018-04-02T08:43:43.004Z,31.7
2018-04-02T08:44:33.354Z,31.7
2018-04-02T08:45:23.418Z,31.9
2018-04-02T08:46:13.782Z,32.5
2018-04-02T08:47:03.871Z,33.5
2018-04-02T08:47:53.603Z,34.4
2018-04-02T08:48:43.655Z,34.8
2018-04-02T08:49:33.730Z,34.6
2018-04-02T08:50:24.068Z,34.3
2018-04-02T08:51:14.176Z,34
2018-04-02T08:52:04.200Z,33.9
2018-04-02T08:52:54.317Z,33.9
2018-04-02T08:53:44.025Z,34
2018-04-02T08:54:33.893Z,34.1
2018-04-02T08:55:24.165Z,34.2
2018-04-02T08:56:14.220Z,34.4
2018-04-02T08:57:04.571Z,34.6
2018-04-02T08:57:54.341Z,34.6
2018-04-02T08:58:44.391Z,34.6
2018-04-02T08:59:34.744Z,34.9
2018-04-02T09:00:24.232Z,35.4
2018-04-02T09:01:14.866Z,35.9
2018-04-02T09:02:04.638Z,36.4
2018-04-02T09:02:54.493Z,36.3
2018-04-02T09:03:44.760Z,35.9
2018-04-02T09:04:34.823Z,35.6
2018-04-02T09:05:24.879Z,35.9
2018-04-02T09:06:14.957Z,36.6
2018-04-02T09:07:05.018Z,37.3
2018-04-02T09:07:55.354Z,37.9
2018-04-02T09:08:45.423Z,38.2
2018-04-02T09:09:35.185Z,38.4
2018-04-02T09:10:24.965Z,38.6
2018-04-02T09:11:15.023Z,38.8
2018-04-02T09:12:05.387Z,39
2018-04-02T09:12:55.724Z,39.3
2018-04-02T09:13:45.783Z,39.6
2018-04-02T09:14:35.351Z,39.8
2018-04-02T09:15:25.917Z,40
2018-04-02T09:16:15.978Z,40.3
2018-04-02T09:17:05.737Z,40.5
2018-04-02T09:17:56.104Z,40.7
2018-04-02T09:18:46.167Z,40.9
2018-04-02T09:19:36.216Z,41.1
2018-04-02T09:20:26.284Z,41.2
2018-04-02T09:21:16.143Z,41
2018-04-02T09:22:06.110Z,40.6
2018-04-02T09:22:55.977Z,40.3
2018-04-02T09:23:46.041Z,40.3
2018-04-02T09:24:36.389Z,40.4
2018-04-02T09:25:26.388Z,40.6
2018-04-02T09:26:16.409Z,41
2018-04-02T09:27:06.576Z,41.4
2018-04-02T09:27:56.264Z,41.6
2018-04-02T09:28:46.694Z,41.3
2018-04-02T09:29:36.668Z,40.9
2018-04-02T09:30:27.031Z,40.4
2018-04-02T09:31:17.079Z,40.2
2018-04-02T09:32:06.945Z,40.1
2018-04-02T09:32:57.213Z,40.1
2018-04-02T09:33:47.259Z,40.3
2018-04-02T09:34:37.040Z,40.2
2018-04-02T09:35:26.892Z,40.1
2018-04-02T09:36:17.155Z,39.9
2018-04-02T09:37:07.013Z,39.6
2018-04-02T09:37:57.572Z,39.4
2018-04-02T09:38:47.059Z,39.3
2018-04-02T09:39:37.692Z,39.2
2018-04-02T09:40:27.263Z,39.1
2018-04-02T09:41:17.616Z,38.9
2018-04-02T09:42:07.887Z,38.9
2018-04-02T09:42:57.930Z,38.8
2018-04-02T09:43:47.990Z,38.6
2018-04-02T09:44:38.065Z,38.6
2018-04-02T09:45:27.827Z,38.6
2018-04-02T09:46:17.890Z,39
2018-04-02T09:47:08.236Z,39.9
2018-04-02T09:47:58.310Z,40.8
2018-04-02T09:48:48.357Z,41.6
2018-04-02T09:49:38.432Z,42.1
2018-04-02T09:50:28.211Z,42.4
2018-04-02T09:51:18.558Z,42.7
2018-04-02T09:52:08.613Z,42.8
2018-04-02T09:52:58.672Z,42.5
2018-04-02T09:53:48.446Z,42.1
2018-04-02T09:54:38.796Z,41.7
2018-04-02T09:55:28.569Z,41.4
2018-04-02T09:56:18.621Z,41.2
2018-04-02T09:57:08.986Z,41.1
2018-04-02T09:57:59.036Z,40.9
2018-04-02T09:58:49.095Z,40.8
2018-04-02T09:59:39.183Z,40.6
2018-04-02T10:00:29.226Z,40.4
2018-04-02T10:01:19.292Z,40.3
2018-04-02T10:02:09.356Z,40.2
2018-04-02T10:02:59.123Z,40.1
2018-04-02T10:03:49.462Z,40.1
2018-04-02T10:04:39.372Z,39.9
2018-04-02T10:05:29.298Z,39.6
2018-04-02T10:06:19.646Z,39.4
2018-04-02T10:07:09.446Z,39.4
2018-04-02T10:07:59.797Z,39.5
2018-04-02T10:08:49.546Z,39.6
2018-04-02T10:09:39.919Z,39.5
2018-04-02T10:10:29.759Z,39.4
2018-04-02T10:11:20.013Z,39.3
2018-04-02T10:12:10.105Z,39.1
2018-04-02T10:12:59.853Z,39.1
2018-04-02T10:13:50.225Z,39
2018-04-02T10:14:40.270Z,38.9
2018-04-02T10:15:30.098Z,39
2018-04-02T10:16:20.388Z,39.1
2018-04-02T10:17:10.444Z,39.3
2018-04-02T10:18:00.536Z,40.1
2018-04-02T10:18:50.565Z,41
2018-04-02T10:19:40.356Z,41.6
2018-04-02T10:20:30.701Z,41.6
2018-04-02T10:21:20.763Z,41.3
2018-04-02T10:22:10.539Z,40.9
2018-04-02T10:23:00.879Z,40.8
2018-04-02T10:23:50.819Z,40.7
2018-04-02T10:24:41.008Z,40.7
2018-04-02T10:25:30.778Z,40.7
2018-04-02T10:26:20.858Z,40.7
2018-04-02T10:27:10.909Z,40.8
2018-04-02T10:28:01.269Z,40.8
2018-04-02T10:28:51.312Z,40.7
2018-04-02T10:29:41.457Z,40.5
2018-04-02T10:30:31.145Z,40.4
2018-04-02T10:31:21.485Z,40.3
2018-04-02T10:32:11.363Z,40.3
2018-04-02T10:33:01.220Z,40.6
2018-04-02T10:33:51.394Z,41.3
2018-04-02T10:34:41.745Z,42.1
2018-04-02T10:35:31.508Z,42.5
2018-04-02T10:36:21.572Z,42.4
2018-04-02T10:37:12.041Z,42
2018-04-02T10:38:01.694Z,41.4
2018-04-02T10:38:51.470Z,41.1
2018-04-02T10:39:41.533Z,41.1
2018-04-02T10:40:31.891Z,41.1
2018-04-02T10:41:22.224Z,40.9
2018-04-02T10:42:11.998Z,40.8
2018-04-02T10:43:02.356Z,40.8
2018-04-02T10:43:52.138Z,41.2
2018-04-02T10:44:42.194Z,41.7
2018-04-02T10:45:32.328Z,41.8
2018-04-02T10:46:22.395Z,41.6
2018-04-02T10:47:12.177Z,41.3
2018-04-02T10:48:02.431Z,41
2018-04-02T10:48:52.508Z,41
2018-04-02T10:49:42.346Z,40.1
2018-04-02T10:50:32.504Z,38.4
2018-04-02T10:51:22.961Z,36.9
2018-04-02T10:52:13.022Z,36.4
2018-04-02T10:53:02.803Z,35.4
2018-04-02T10:53:53.206Z,34.4
2018-04-02T10:54:43.205Z,33.4
2018-04-02T10:55:32.993Z,32.1
2018-04-02T10:56:23.336Z,31.5
2018-04-02T10:57:13.109Z,31.3
2018-04-02T10:58:03.168Z,31.3
2018-04-02T10:58:53.502Z,31.3
2018-04-02T10:59:43.473Z,31.3
2018-04-02T11:00:33.153Z,31.2
2018-04-02T11:01:23.410Z,31.2
2018-04-02T11:02:13.783Z,31.1
2018-04-02T11:03:03.556Z,31.2
2018-04-02T11:03:53.872Z,31.3
2018-04-02T11:04:43.965Z,31.3
2018-04-02T11:05:33.723Z,31.4
2018-04-02T11:06:23.780Z,31.4
2018-04-02T11:07:13.727Z,31.4
2018-04-02T11:08:04.191Z,31.4
2018-04-02T11:08:53.978Z,31.4
2018-04-02T11:09:44.024Z,31.4
2018-04-02T11:10:34.095Z,31.6
2018-04-02T11:11:24.423Z,31.7
2018-04-02T11:12:14.206Z,31.7
2018-04-02T11:13:04.560Z,31.6
2018-04-02T11:13:54.427Z,31.6
2018-04-02T11:14:44.189Z,31.6
2018-04-02T11:15:34.185Z,31.6
2018-04-02T11:16:24.399Z,31.6
2018-04-02T11:17:14.470Z,31.6
2018-04-02T11:18:04.935Z,32
2018-04-02T11:18:54.702Z,32.8
2018-04-02T11:19:44.772Z,33.8
2018-04-02T11:20:34.624Z,34.6
2018-04-02T11:21:24.882Z,35.1
2018-04-02T11:22:15.244Z,35.5
2018-04-02T11:23:05.307Z,35.8
2018-04-02T11:23:55.354Z,36.1